NCAR-RAP Real-Time Weather Data

Output produced by METARs form (23 June 2018  19:27 UTC)
found at http://weather.rap.ucar.edu/surface/
 
RJGG 231900Z 05006KT 5000 -SHRA BR FEW015 BKN030 BKN070 19/18 Q1004 NOSIG
RJGG 231830Z 07004KT 5000 -SHRA BR FEW009 SCT015 BKN030 19/18 Q1004 NOSIG
RJGG 231800Z 08004KT 4000 -SHRA BR FEW015 BKN030 19/18 Q1004 BECMG 05006KT 6000 NSW
RJGG 231730Z 08006KT 9000 VCSH FEW008 SCT015 BKN030 19/18 Q1004 BECMG 05006KT
RJGG 231700Z 07006KT 9000 -SHRA FEW008 SCT015 BKN030 19/17 Q1004 NOSIG
RJGG 231630Z 07005KT 9000 -SHRA FEW008 BKN030 BKN080 19/18 Q1005 NOSIG
RJGG 231600Z 07002KT 9999 -SHRA FEW009 SCT030 BKN080 20/19 Q1005 NOSIG
RJGG 231530Z VRB01KT 9999 -RA FEW015 SCT040 BKN060 20/18 Q1005 NOSIG
RJGG 231500Z 19003KT 9999 -RA FEW030 SCT040 BKN060 21/18 Q1005 NOSIG
RJGG 231430Z 21003KT 170V240 9999 FEW030 BKN070 21/18 Q1005 NOSIG
RJGG 231400Z 21004KT 9999 FEW030 BKN070 21/18 Q1005 NOSIG
RJGG 231330Z 19004KT 170V230 9999 FEW030 BKN080 21/18 Q1005 BECMG 28005KT
RJGG 231300Z 20002KT 9999 FEW030 BKN080 BKN170 21/18 Q1005 NOSIG
RJGG 231230Z VRB02KT 9999 FEW030 BKN080 20/18 Q1005 BECMG 30005KT
RJGG 231200Z 31004KT 9999 FEW030 BKN080 20/18 Q1005 NOSIG
RJGG 231130Z 31006KT 9999 FEW030 SCT150 BKN/// 20/18 Q1005 NOSIG
RJGG 231100Z 34008KT 9999 FEW010 BKN100 BKN/// 20/17 Q1004 NOSIG
RJGG 231030Z 34009KT 9999 FEW010 BKN090 BKN/// 20/17 Q1004 NOSIG
RJGG 231000Z 33010KT 9999 FEW010 BKN080 20/17 Q1005 NOSIG
RJGG 230930Z 32011KT 9999 FEW010 BKN/// 20/17 Q1005 NOSIG
RJGG 230900Z 32013KT 9999 FEW006 SCT/// 20/18 Q1004 NOSIG
RJGG 230830Z 34013KT 9999 FEW004 BKN110 BKN/// 20/18 Q1004 NOSIG
RJGG 230800Z 01008KT 9999 FEW004 SCT010 BKN120 20/18 Q1003 NOSIG
RJGG 230730Z 04009KT 8000 -SHRA FEW004 SCT030 BKN050 19/18 Q1003 NOSIG
RJGG 230700Z 03014KT 4000 SHRA BR FEW004 BKN010 BKN030 19/18 Q1004 BECMG 8000 NSW FEW008 BKN030
RJGG 230630Z 02012KT 5000 -SHRA BR FEW004 SCT008 BKN030 19/18 Q1004 NOSIG
RJGG 230600Z 02012KT 3500 SHRA BR FEW004 SCT010 BKN030 19/18 Q1004 NOSIG
RJGG 230530Z 02010KT 3500 -SHRA BR FEW004 SCT010 BKN030 19/19 Q1004 TEMPO 3000 SHRA BR FEW003 BKN012
RJGG 230500Z 07007KT 2500 SHRA BR FEW004 SCT010 BKN025 19/18 Q1005 TEMPO 4000 -SHRA BR FEW005 BKN012
RJGG 230430Z 12007KT 2500 SHRA BR FEW004 SCT010 BKN025 19/18 Q1005 BECMG 04005KT TEMPO 4000 -SHRA BR FEW005 BKN012
RJGG 230400Z 12008KT 2500 SHRA BR FEW005 SCT010 BKN025 19/18 Q1005 TEMPO 4000 -SHRA BR FEW005 BKN012
RJGG 230330Z 12010KT 4000 SHRA BR FEW005 SCT010 BKN025 20/18 Q1005 TEMPO FEW008 BKN012
RJGG 230300Z 11006KT 4000 SHRA BR FEW006 BKN010 BKN080 20/18 Q1006 NOSIG
RJGG 230230Z 16011KT 4000 R18/P1800N -SHRA BR FEW006 BKN012 BKN080 21/20 Q1005 NOSIG
RJGG 230200Z 17008KT 140V210 7000 -SHRA FEW008 BKN015 BKN090 21/20 Q1005 BECMG 32006KT TEMPO FEW008 BKN012
RJGG 230130Z 15007KT 9000 -SHRA FEW009 SCT015 BKN090 22/19 Q1005 BECMG 04006KT
RJGG 230100Z 11006KT 060V150 8000 -SHRA FEW007 SCT012 BKN110 22/20 Q1005 BECMG 04008KT TEMPO FEW008 BKN012
RJGG 230030Z 10013KT 8000 -SHRA FEW007 SCT012 BKN110 22/20 Q1005 BECMG 04008KT
RJGG 230000Z 10011KT 8000 -SHRA FEW007 BKN012 BKN120 22/20 Q1006 NOSIG
RJGG 222330Z 12008KT 9999 FEW007 BKN010 BKN150 22/20 Q1007 NOSIG
RJGG 222300Z 10005KT 070V150 9999 FEW008 BKN012 BKN170 22/19 Q1008 NOSIG
RJGG 222230Z 08004KT 040V100 9999 FEW008 BKN015 21/18 Q1008 BECMG 12008KT
RJGG 222200Z VRB02KT 9999 FEW007 BKN010 21/18 Q1008 BECMG FM2300 12008KT FEW007 SCT015
RJGG 222130Z VRB02KT 9999 FEW007 SCT010 BKN180 21/19 Q1007 TEMPO FEW007 BKN012
RJGG 222100Z 07004KT 040V100 9999 FEW007 SCT180 BKN/// 21/19 Q1007 NOSIG
RJGG 222030Z 10003KT 9999 FEW030 BKN/// 21/19 Q1008 NOSIG
RJGG 222000Z 10004KT 070V130 9999 FEW030 BKN/// 21/19 Q1007 NOSIG
RJGG 221930Z 08003KT 9999 FEW030 BKN/// 21/19 Q1007 BECMG 11005KT
RJGG 221900Z 14004KT 9999 FEW030 BKN/// 21/19 Q1007 NOSIG
RJGG 221830Z 11004KT 9999 FEW030 BKN/// 21/19 Q1007 BECMG 06005KT
RJGG 221800Z 09006KT 9999 FEW030 BKN/// 22/20 Q1007 BECMG 06005KT
RJGG 221730Z 10006KT 9999 FEW030 BKN/// 22/20 Q1007 BECMG 06005KT
RJGG 221700Z 08004KT 9999 FEW030 BKN/// 22/19 Q1008 BECMG 06005KT
RJGG 221630Z 10004KT 9999 FEW030 BKN/// 22/19 Q1008 BECMG 06005KT
RJGG 221600Z 22003KT 160V260 9999 FEW030 BKN/// 22/20 Q1008 NOSIG
RJGG 221530Z 17005KT 9999 FEW030 BKN/// 21/19 Q1008 NOSIG
RJGG 221500Z 17003KT 130V230 9999 FEW030 BKN/// 21/19 Q1008 NOSIG
RJGG 221430Z 21006KT 9999 FEW030 BKN/// 22/20 Q1008 NOSIG
RJGG 221400Z 20008KT 9999 FEW030 BKN/// 23/20 Q1008 NOSIG
RJGG 221330Z 20010KT 9999 FEW030 BKN/// 23/19 Q1008 NOSIG
RJGG 221300Z 19006KT 9999 FEW030 BKN/// 22/19 Q1009 NOSIG
RJGG 221230Z 17003KT 120V220 9999 FEW030 BKN/// 23/19 Q1009 NOSIG
RJGG 221200Z 20010KT 9999 FEW030 BKN/// 23/20 Q1009 NOSIG
RJGG 221130Z 20012KT 9999 FEW030 BKN/// 23/20 Q1009 NOSIG
RJGG 221100Z 22009KT 9999 FEW030 BKN/// 24/20 Q1008 NOSIG
RJGG 221030Z 20011KT 9999 FEW030 BKN/// 24/20 Q1008 NOSIG
RJGG 221000Z 19007KT 9999 FEW030 BKN/// 24/20 Q1008 NOSIG
RJGG 220930Z 18008KT 9999 FEW030 BKN/// 24/21 Q1008 NOSIG
RJGG 220900Z 17008KT 9999 FEW030 BKN/// 25/20 Q1007 NOSIG
RJGG 220830Z 17010KT 9999 FEW030 BKN/// 26/20 Q1007 NOSIG
RJGG 220800Z 17009KT 9999 FEW030 BKN/// 25/21 Q1007 NOSIG
RJGG 220730Z 18008KT 9999 FEW030 BKN/// 26/19 Q1007 NOSIG
RJGG 220700Z 17007KT 9999 FEW030 BKN/// 26/20 Q1007 NOSIG
RJGG 220630Z 17005KT 9999 FEW030 BKN/// 27/19 Q1007 NOSIG
RJGG 220600Z 27002KT 9999 FEW030 BKN/// 28/14 Q1007 NOSIG
RJGG 220530Z 29002KT 9999 FEW030 BKN/// 29/14 Q1007 NOSIG
RJGG 220500Z 32003KT 9999 FEW030 BKN/// 27/16 Q1007 NOSIG
RJGG 220430Z 33003KT 9999 FEW030 BKN/// 26/16 Q1008 NOSIG
RJGG 220400Z 27003KT 9999 FEW030 BKN/// 26/16 Q1008 BECMG 24005KT
RJGG 220330Z 24003KT 9999 FEW030 BKN/// 26/14 Q1009 NOSIG
RJGG 220300Z 24003KT 9999 FEW030 BKN/// 26/11 Q1009 NOSIG
RJGG 220230Z 23003KT 9999 FEW030 BKN/// 25/12 Q1009 NOSIG
RJGG 220200Z 23003KT 9999 FEW030 BKN/// 24/17 Q1009 NOSIG
RJGG 220130Z 27002KT 9999 FEW030 BKN/// 23/17 Q1010 BECMG 24005KT
RJGG 220100Z 33005KT 9999 FEW030 BKN/// 23/17 Q1010 NOSIG
RJGG 220030Z 33006KT 9999 FEW030 BKN/// 23/17 Q1010 NOSIG
RJGG 220000Z 32007KT 9999 FEW020 BKN/// 22/16 Q1010 NOSIG
RJGG 212330Z 32008KT 9999 FEW020 BKN/// 22/16 Q1009 NOSIG
RJGG 212300Z 35008KT 9999 FEW020 BKN/// 22/15 Q1010 NOSIG
RJGG 212230Z 36009KT 9999 FEW020 BKN/// 22/14 Q1009 NOSIG
RJGG 212200Z 35009KT 9999 FEW020 BKN/// 22/15 Q1009 NOSIG
RJGG 212130Z 33007KT 9999 FEW020 BKN/// 22/14 Q1009 NOSIG
RJGG 212100Z 35008KT 9999 FEW020 SCT/// 21/15 Q1009 NOSIG
RJGG 212030Z 31008KT 9999 FEW020 SCT/// 21/15 Q1009 NOSIG
RJGG 212000Z 31008KT 9999 FEW020 SCT/// 21/15 Q1008 NOSIG
RJGG 211930Z 30008KT 9999 FEW020 SCT/// 21/15 Q1008 NOSIG
RJGG 211900Z 29008KT 9999 FEW020 SCT/// 21/17 Q1008 NOSIG
RJGG 211830Z 28011KT 9999 FEW020 21/17 Q1008 NOSIG
RJGG 211800Z 28011KT 9999 FEW020 21/17 Q1008 NOSIG
RJGG 211730Z 28010KT 9999 FEW020 21/17 Q1007 NOSIG
RJGG 211700Z 29011KT 9999 FEW020 21/18 Q1007 NOSIG
RJGG 211630Z 28013KT 9999 FEW020 22/17 Q1007 NOSIG
RJGG 211600Z 27012KT 9999 FEW020 22/17 Q1007 NOSIG
RJGG 211530Z 28008KT 9999 FEW020 SCT/// 22/17 Q1007 NOSIG
RJGG 211500Z 30010KT 9999 FEW020 SCT/// 22/18 Q1007 NOSIG
RJGG 211430Z 31014KT 9999 FEW020 SCT/// 22/17 Q1007 NOSIG
RJGG 211400Z 30013KT 9999 FEW020 SCT/// 23/18 Q1007 NOSIG
RJGG 211330Z 31014KT 9999 FEW020 SCT/// 23/18 Q1007 NOSIG
RJGG 211300Z 32017KT 9999 FEW020 BKN/// 23/17 Q1007 NOSIG
RJGG 211230Z 34013KT 9999 FEW020 BKN/// 23/18 Q1006 NOSIG
RJGG 211200Z 32012KT 9999 FEW020 BKN/// 23/19 Q1006 NOSIG
RJGG 211130Z 33011KT 9999 FEW020 BKN/// 24/19 Q1006 NOSIG
RJGG 211100Z 29007KT 9999 FEW020 BKN/// 24/19 Q1005 NOSIG
RJGG 211030Z 30008KT 9999 FEW020 SCT/// 23/21 Q1005 NOSIG
RJGG 211000Z 25005KT 9999 FEW020 SCT/// 24/20 Q1005 BECMG 30012KT
RJGG 210930Z 24007KT 9999 FEW020 BKN/// 24/19 Q1005 BECMG 28010KT
RJGG 210900Z 21005KT 9999 FEW020 BKN/// 24/21 Q1004 NOSIG
RJGG 210830Z 20004KT 9999 FEW020 BKN/// 24/20 Q1004 NOSIG
RJGG 210800Z 21003KT 9999 FEW020 BKN/// 24/20 Q1004 NOSIG
RJGG 210730Z 23004KT 9999 FEW020 BKN/// 24/20 Q1004 NOSIG